sensor_id;sensor_type;location;lat;lon;timestamp;temperature;humidity
851;DHT22;412;51.400;7.480;2022-09-06T00:02:01;21.90;92.80
851;DHT22;412;51.400;7.480;2022-09-06T00:04:27;21.90;92.80
851;DHT22;412;51.400;7.480;2022-09-06T00:06:53;21.90;92.70
851;DHT22;412;51.400;7.480;2022-09-06T00:09:18;21.90;92.70
851;DHT22;412;51.400;7.480;2022-09-06T00:11:44;21.90;93.00
851;DHT22;412;51.400;7.480;2022-09-06T00:14:09;22.00;93.30
851;DHT22;412;51.400;7.480;2022-09-06T00:16:35;21.90;93.40
851;DHT22;412;51.400;7.480;2022-09-06T00:19:01;22.00;93.80
851;DHT22;412;51.400;7.480;2022-09-06T00:21:29;22.00;94.20
851;DHT22;412;51.400;7.480;2022-09-06T00:23:55;22.00;94.30
851;DHT22;412;51.400;7.480;2022-09-06T00:26:21;21.90;94.20
851;DHT22;412;51.400;7.480;2022-09-06T00:28:47;21.90;94.10
851;DHT22;412;51.400;7.480;2022-09-06T00:31:18;21.90;94.00
851;DHT22;412;51.400;7.480;2022-09-06T00:33:45;21.90;93.80
851;DHT22;412;51.400;7.480;2022-09-06T00:36:11;21.90;93.80
851;DHT22;412;51.400;7.480;2022-09-06T00:38:37;21.80;93.70
851;DHT22;412;51.400;7.480;2022-09-06T00:41:05;21.80;93.90
851;DHT22;412;51.400;7.480;2022-09-06T00:43:31;21.80;94.00
851;DHT22;412;51.400;7.480;2022-09-06T00:45:58;21.80;94.10
851;DHT22;412;51.400;7.480;2022-09-06T00:48:24;21.80;94.10
851;DHT22;412;51.400;7.480;2022-09-06T00:50:53;21.80;93.90
851;DHT22;412;51.400;7.480;2022-09-06T00:53:20;21.80;93.90
851;DHT22;412;51.400;7.480;2022-09-06T00:55:46;21.80;94.30
851;DHT22;412;51.400;7.480;2022-09-06T00:58:13;21.80;94.70
851;DHT22;412;51.400;7.480;2022-09-06T01:00:39;21.90;94.30
851;DHT22;412;51.400;7.480;2022-09-06T01:03:05;21.80;94.10
851;DHT22;412;51.400;7.480;2022-09-06T01:08:29;21.80;94.00
851;DHT22;412;51.400;7.480;2022-09-06T01:19:23;21.90;94.60
851;DHT22;412;51.400;7.480;2022-09-06T01:37:49;21.90;94.60
851;DHT22;412;51.400;7.480;2022-09-06T01:40:15;21.90;93.40
851;DHT22;412;51.400;7.480;2022-09-06T01:42:43;21.90;92.20
851;DHT22;412;51.400;7.480;2022-09-06T01:45:13;22.00;91.80
851;DHT22;412;51.400;7.480;2022-09-06T01:50:56;22.10;91.50
851;DHT22;412;51.400;7.480;2022-09-06T01:56:37;22.10;91.80
851;DHT22;412;51.400;7.480;2022-09-06T02:04:32;22.10;91.50
851;DHT22;412;51.400;7.480;2022-09-06T02:07:14;22.10;91.70
851;DHT22;412;51.400;7.480;2022-09-06T02:09:42;22.10;91.40
851;DHT22;412;51.400;7.480;2022-09-06T02:12:12;22.10;91.40
851;DHT22;412;51.400;7.480;2022-09-06T02:14:44;22.10;91.20
851;DHT22;412;51.400;7.480;2022-09-06T02:17:14;22.10;91.20
851;DHT22;412;51.400;7.480;2022-09-06T02:22:12;22.10;90.90
851;DHT22;412;51.400;7.480;2022-09-06T02:24:41;22.10;89.50
851;DHT22;412;51.400;7.480;2022-09-06T02:27:10;22.10;89.70
851;DHT22;412;51.400;7.480;2022-09-06T02:29:36;22.20;89.30
851;DHT22;412;51.400;7.480;2022-09-06T02:32:16;22.20;90.00
851;DHT22;412;51.400;7.480;2022-09-06T02:34:43;22.20;90.10
851;DHT22;412;51.400;7.480;2022-09-06T02:37:11;22.30;90.00
851;DHT22;412;51.400;7.480;2022-09-06T02:39:38;22.30;90.50
851;DHT22;412;51.400;7.480;2022-09-06T02:42:05;22.40;91.70
851;DHT22;412;51.400;7.480;2022-09-06T02:44:32;22.40;90.80
851;DHT22;412;51.400;7.480;2022-09-06T02:46:57;22.40;90.80
851;DHT22;412;51.400;7.480;2022-09-06T02:49:23;22.40;91.30
851;DHT22;412;51.400;7.480;2022-09-06T02:51:49;22.40;91.30
851;DHT22;412;51.400;7.480;2022-09-06T02:54:15;22.40;91.40
851;DHT22;412;51.400;7.480;2022-09-06T02:56:41;22.40;91.40
851;DHT22;412;51.400;7.480;2022-09-06T02:59:06;22.40;91.30
851;DHT22;412;51.400;7.480;2022-09-06T03:01:33;22.40;90.80
851;DHT22;412;51.400;7.480;2022-09-06T03:03:58;22.40;90.50
851;DHT22;412;51.400;7.480;2022-09-06T03:06:25;22.40;91.10
851;DHT22;412;51.400;7.480;2022-09-06T03:08:50;22.30;91.20
851;DHT22;412;51.400;7.480;2022-09-06T03:11:16;22.30;91.80
851;DHT22;412;51.400;7.480;2022-09-06T03:13:42;22.30;92.00
851;DHT22;412;51.400;7.480;2022-09-06T03:16:08;22.40;91.60
851;DHT22;412;51.400;7.480;2022-09-06T03:18:34;22.30;92.30
851;DHT22;412;51.400;7.480;2022-09-06T03:20:59;22.40;91.50
851;DHT22;412;51.400;7.480;2022-09-06T03:23:27;22.30;91.10
851;DHT22;412;51.400;7.480;2022-09-06T03:25:53;22.30;91.20
851;DHT22;412;51.400;7.480;2022-09-06T03:28:20;22.30;91.20
851;DHT22;412;51.400;7.480;2022-09-06T03:30:50;22.30;91.50
851;DHT22;412;51.400;7.480;2022-09-06T03:33:17;22.30;91.90
851;DHT22;412;51.400;7.480;2022-09-06T03:35:53;22.30;91.80
851;DHT22;412;51.400;7.480;2022-09-06T03:38:19;22.30;92.10
851;DHT22;412;51.400;7.480;2022-09-06T03:40:46;22.30;91.80
851;DHT22;412;51.400;7.480;2022-09-06T03:43:13;22.30;91.70
851;DHT22;412;51.400;7.480;2022-09-06T03:45:39;22.20;91.80
851;DHT22;412;51.400;7.480;2022-09-06T03:48:05;22.30;92.00
851;DHT22;412;51.400;7.480;2022-09-06T03:50:31;22.20;92.10
851;DHT22;412;51.400;7.480;2022-09-06T03:52:57;22.20;92.40
851;DHT22;412;51.400;7.480;2022-09-06T03:55:23;22.20;92.20
851;DHT22;412;51.400;7.480;2022-09-06T03:57:48;22.20;92.10
851;DHT22;412;51.400;7.480;2022-09-06T04:00:14;22.00;91.60
851;DHT22;412;51.400;7.480;2022-09-06T04:02:40;21.90;91.90
851;DHT22;412;51.400;7.480;2022-09-06T04:05:06;21.80;92.20
851;DHT22;412;51.400;7.480;2022-09-06T04:07:32;21.80;92.50
851;DHT22;412;51.400;7.480;2022-09-06T04:09:58;21.90;92.50
851;DHT22;412;51.400;7.480;2022-09-06T04:12:23;21.90;92.60
851;DHT22;412;51.400;7.480;2022-09-06T04:14:49;21.70;92.80
851;DHT22;412;51.400;7.480;2022-09-06T04:17:15;21.60;93.40
851;DHT22;412;51.400;7.480;2022-09-06T04:19:40;21.70;93.50
851;DHT22;412;51.400;7.480;2022-09-06T04:22:06;21.70;93.30
851;DHT22;412;51.400;7.480;2022-09-06T04:24:32;21.70;93.50
851;DHT22;412;51.400;7.480;2022-09-06T04:26:57;21.80;93.90
851;DHT22;412;51.400;7.480;2022-09-06T04:29:24;21.80;93.50
851;DHT22;412;51.400;7.480;2022-09-06T04:31:49;21.80;93.50
851;DHT22;412;51.400;7.480;2022-09-06T04:34:15;21.90;93.60
851;DHT22;412;51.400;7.480;2022-09-06T04:36:41;21.90;93.30
851;DHT22;412;51.400;7.480;2022-09-06T04:39:07;22.00;93.50
851;DHT22;412;51.400;7.480;2022-09-06T04:41:33;22.00;93.60
851;DHT22;412;51.400;7.480;2022-09-06T04:43:58;22.10;93.90
851;DHT22;412;51.400;7.480;2022-09-06T04:46:26;22.10;93.60
851;DHT22;412;51.400;7.480;2022-09-06T04:48:53;22.20;93.90
851;DHT22;412;51.400;7.480;2022-09-06T04:51:20;22.20;94.20
851;DHT22;412;51.400;7.480;2022-09-06T04:53:46;22.20;94.30
851;DHT22;412;51.400;7.480;2022-09-06T04:56:14;22.30;94.60
851;DHT22;412;51.400;7.480;2022-09-06T04:58:41;22.30;94.70
851;DHT22;412;51.400;7.480;2022-09-06T05:01:07;22.20;94.60
851;DHT22;412;51.400;7.480;2022-09-06T05:03:33;22.30;94.70
851;DHT22;412;51.400;7.480;2022-09-06T05:06:07;22.30;94.70
851;DHT22;412;51.400;7.480;2022-09-06T05:08:35;22.30;94.70
851;DHT22;412;51.400;7.480;2022-09-06T05:11:01;22.30;94.80
851;DHT22;412;51.400;7.480;2022-09-06T05:13:27;22.30;95.00
851;DHT22;412;51.400;7.480;2022-09-06T05:15:53;22.30;94.70
851;DHT22;412;51.400;7.480;2022-09-06T05:18:19;22.20;94.60
851;DHT22;412;51.400;7.480;2022-09-06T05:20:53;22.20;94.80
851;DHT22;412;51.400;7.480;2022-09-06T05:23:20;22.20;94.80
851;DHT22;412;51.400;7.480;2022-09-06T05:25:46;22.20;95.00
851;DHT22;412;51.400;7.480;2022-09-06T05:28:12;22.20;95.20
851;DHT22;412;51.400;7.480;2022-09-06T05:30:38;22.20;95.20
851;DHT22;412;51.400;7.480;2022-09-06T05:33:04;22.20;95.50
851;DHT22;412;51.400;7.480;2022-09-06T05:35:29;22.20;95.60
851;DHT22;412;51.400;7.480;2022-09-06T05:37:55;22.20;96.00
851;DHT22;412;51.400;7.480;2022-09-06T05:40:21;22.20;96.00
851;DHT22;412;51.400;7.480;2022-09-06T05:42:47;22.20;97.40
851;DHT22;412;51.400;7.480;2022-09-06T05:45:12;22.30;97.30
851;DHT22;412;51.400;7.480;2022-09-06T05:47:38;22.40;96.70
851;DHT22;412;51.400;7.480;2022-09-06T05:50:04;22.60;97.60
851;DHT22;412;51.400;7.480;2022-09-06T05:52:31;22.60;95.90
851;DHT22;412;51.400;7.480;2022-09-06T05:54:59;22.60;95.60
851;DHT22;412;51.400;7.480;2022-09-06T05:57:25;22.50;95.60
851;DHT22;412;51.400;7.480;2022-09-06T05:59:51;22.40;95.40
851;DHT22;412;51.400;7.480;2022-09-06T06:02:19;22.30;95.40
851;DHT22;412;51.400;7.480;2022-09-06T06:04:45;22.30;95.70
851;DHT22;412;51.400;7.480;2022-09-06T06:07:11;22.20;95.80
851;DHT22;412;51.400;7.480;2022-09-06T06:09:37;22.20;96.30
851;DHT22;412;51.400;7.480;2022-09-06T06:12:03;22.10;96.60
851;DHT22;412;51.400;7.480;2022-09-06T06:14:29;22.10;96.50
851;DHT22;412;51.400;7.480;2022-09-06T06:16:54;22.10;95.90
851;DHT22;412;51.400;7.480;2022-09-06T06:19:20;22.00;95.80
851;DHT22;412;51.400;7.480;2022-09-06T06:21:46;22.00;95.70
851;DHT22;412;51.400;7.480;2022-09-06T06:24:11;22.10;95.30
851;DHT22;412;51.400;7.480;2022-09-06T06:26:37;22.00;95.40
851;DHT22;412;51.400;7.480;2022-09-06T06:29:04;22.10;95.50
851;DHT22;412;51.400;7.480;2022-09-06T06:31:32;22.10;95.50
851;DHT22;412;51.400;7.480;2022-09-06T06:33:58;22.10;95.40
851;DHT22;412;51.400;7.480;2022-09-06T06:36:27;22.20;95.30
851;DHT22;412;51.400;7.480;2022-09-06T06:38:56;22.20;95.20
851;DHT22;412;51.400;7.480;2022-09-06T06:41:24;22.20;95.10
851;DHT22;412;51.400;7.480;2022-09-06T06:43:55;22.30;95.00
851;DHT22;412;51.400;7.480;2022-09-06T06:46:22;22.30;95.20
851;DHT22;412;51.400;7.480;2022-09-06T06:48:48;22.30;94.70
851;DHT22;412;51.400;7.480;2022-09-06T06:51:19;22.40;94.70
851;DHT22;412;51.400;7.480;2022-09-06T06:53:45;22.40;94.80
851;DHT22;412;51.400;7.480;2022-09-06T06:56:19;22.50;94.60
851;DHT22;412;51.400;7.480;2022-09-06T06:58:46;22.50;94.50
851;DHT22;412;51.400;7.480;2022-09-06T07:01:16;22.60;94.50
851;DHT22;412;51.400;7.480;2022-09-06T07:03:42;22.70;94.50
851;DHT22;412;51.400;7.480;2022-09-06T07:06:08;22.70;94.30
851;DHT22;412;51.400;7.480;2022-09-06T07:08:34;22.80;94.50
851;DHT22;412;51.400;7.480;2022-09-06T07:11:01;22.90;94.20
851;DHT22;412;51.400;7.480;2022-09-06T07:13:27;22.90;93.90
851;DHT22;412;51.400;7.480;2022-09-06T07:16:05;23.00;93.90
851;DHT22;412;51.400;7.480;2022-09-06T07:18:31;23.00;93.90
851;DHT22;412;51.400;7.480;2022-09-06T07:20:57;23.10;93.70
851;DHT22;412;51.400;7.480;2022-09-06T07:23:22;23.10;93.40
851;DHT22;412;51.400;7.480;2022-09-06T07:25:49;23.10;93.10
851;DHT22;412;51.400;7.480;2022-09-06T07:28:15;23.10;93.10
851;DHT22;412;51.400;7.480;2022-09-06T07:30:41;23.10;93.30
851;DHT22;412;51.400;7.480;2022-09-06T07:33:06;23.00;93.70
851;DHT22;412;51.400;7.480;2022-09-06T07:35:32;23.10;93.90
851;DHT22;412;51.400;7.480;2022-09-06T07:38:00;23.20;93.40
851;DHT22;412;51.400;7.480;2022-09-06T07:40:27;23.30;93.30
851;DHT22;412;51.400;7.480;2022-09-06T07:42:59;23.30;92.90
851;DHT22;412;51.400;7.480;2022-09-06T07:45:26;23.40;93.00
851;DHT22;412;51.400;7.480;2022-09-06T07:47:56;23.50;92.50
851;DHT22;412;51.400;7.480;2022-09-06T07:50:27;23.60;92.60
851;DHT22;412;51.400;7.480;2022-09-06T07:52:53;23.70;92.20
851;DHT22;412;51.400;7.480;2022-09-06T07:55:19;23.80;92.30
851;DHT22;412;51.400;7.480;2022-09-06T07:57:44;23.80;91.10
851;DHT22;412;51.400;7.480;2022-09-06T08:00:11;23.90;90.40
851;DHT22;412;51.400;7.480;2022-09-06T08:02:37;23.90;90.00
851;DHT22;412;51.400;7.480;2022-09-06T08:05:03;23.90;89.40
851;DHT22;412;51.400;7.480;2022-09-06T08:07:29;24.00;90.60
851;DHT22;412;51.400;7.480;2022-09-06T08:09:55;24.00;88.60
851;DHT22;412;51.400;7.480;2022-09-06T08:12:20;24.00;89.00
851;DHT22;412;51.400;7.480;2022-09-06T08:14:46;24.20;90.00
851;DHT22;412;51.400;7.480;2022-09-06T08:17:12;24.30;90.00
851;DHT22;412;51.400;7.480;2022-09-06T08:19:38;24.50;90.40
851;DHT22;412;51.400;7.480;2022-09-06T08:22:03;24.60;89.50
851;DHT22;412;51.400;7.480;2022-09-06T08:24:29;24.70;88.70
851;DHT22;412;51.400;7.480;2022-09-06T08:26:55;24.80;86.70
851;DHT22;412;51.400;7.480;2022-09-06T08:29:21;24.80;86.40
851;DHT22;412;51.400;7.480;2022-09-06T08:31:47;24.80;83.90
851;DHT22;412;51.400;7.480;2022-09-06T08:34:12;24.90;84.10
851;DHT22;412;51.400;7.480;2022-09-06T08:36:39;25.00;83.20
851;DHT22;412;51.400;7.480;2022-09-06T08:39:06;25.10;82.90
851;DHT22;412;51.400;7.480;2022-09-06T08:41:47;25.10;81.80
851;DHT22;412;51.400;7.480;2022-09-06T08:44:34;25.30;83.00
851;DHT22;412;51.400;7.480;2022-09-06T08:47:06;25.30;79.10
851;DHT22;412;51.400;7.480;2022-09-06T08:49:38;25.30;78.60
851;DHT22;412;51.400;7.480;2022-09-06T08:52:26;25.40;79.40
851;DHT22;412;51.400;7.480;2022-09-06T08:59:58;25.70;77.50
851;DHT22;412;51.400;7.480;2022-09-06T09:02:25;25.80;77.40
851;DHT22;412;51.400;7.480;2022-09-06T09:04:59;25.90;76.90
851;DHT22;412;51.400;7.480;2022-09-06T09:09:54;26.10;76.50
851;DHT22;412;51.400;7.480;2022-09-06T09:12:22;26.20;75.30
851;DHT22;412;51.400;7.480;2022-09-06T09:14:54;26.40;75.30
851;DHT22;412;51.400;7.480;2022-09-06T09:17:25;26.50;74.20
851;DHT22;412;51.400;7.480;2022-09-06T09:19:52;26.70;73.50
851;DHT22;412;51.400;7.480;2022-09-06T09:22:18;26.80;72.40
851;DHT22;412;51.400;7.480;2022-09-06T09:24:45;27.00;71.40
851;DHT22;412;51.400;7.480;2022-09-06T09:27:15;27.20;70.90
851;DHT22;412;51.400;7.480;2022-09-06T09:32:41;27.70;70.80
851;DHT22;412;51.400;7.480;2022-09-06T09:35:39;28.00;67.30
851;DHT22;412;51.400;7.480;2022-09-06T09:38:08;28.20;67.40
851;DHT22;412;51.400;7.480;2022-09-06T09:40:50;28.50;65.10
851;DHT22;412;51.400;7.480;2022-09-06T09:45:45;29.00;63.40
851;DHT22;412;51.400;7.480;2022-09-06T09:48:20;29.20;62.30
851;DHT22;412;51.400;7.480;2022-09-06T09:50:48;29.40;62.10
851;DHT22;412;51.400;7.480;2022-09-06T09:53:17;29.60;61.80
851;DHT22;412;51.400;7.480;2022-09-06T09:55:43;29.90;59.20
851;DHT22;412;51.400;7.480;2022-09-06T09:58:34;30.10;59.40
851;DHT22;412;51.400;7.480;2022-09-06T10:03:39;30.50;57.90
851;DHT22;412;51.400;7.480;2022-09-06T10:06:09;30.70;56.70
851;DHT22;412;51.400;7.480;2022-09-06T10:08:39;30.80;56.30
851;DHT22;412;51.400;7.480;2022-09-06T10:11:11;31.00;57.20
851;DHT22;412;51.400;7.480;2022-09-06T10:13:37;31.10;55.10
851;DHT22;412;51.400;7.480;2022-09-06T10:16:03;31.30;55.80
851;DHT22;412;51.400;7.480;2022-09-06T10:18:34;31.50;55.40
851;DHT22;412;51.400;7.480;2022-09-06T10:21:05;31.70;55.90
851;DHT22;412;51.400;7.480;2022-09-06T10:26:48;31.90;54.70
851;DHT22;412;51.400;7.480;2022-09-06T10:29:25;32.20;55.10
851;DHT22;412;51.400;7.480;2022-09-06T10:35:08;32.40;52.70
851;DHT22;412;51.400;7.480;2022-09-06T10:40:59;32.60;52.40
851;DHT22;412;51.400;7.480;2022-09-06T10:43:48;32.70;52.20
851;DHT22;412;51.400;7.480;2022-09-06T10:46:15;32.80;51.90
851;DHT22;412;51.400;7.480;2022-09-06T10:48:47;32.90;51.80
851;DHT22;412;51.400;7.480;2022-09-06T10:51:39;33.00;51.20
851;DHT22;412;51.400;7.480;2022-09-06T10:54:13;33.10;51.00
851;DHT22;412;51.400;7.480;2022-09-06T10:56:59;33.10;50.60
851;DHT22;412;51.400;7.480;2022-09-06T10:59:33;33.10;50.60
851;DHT22;412;51.400;7.480;2022-09-06T11:04:49;33.10;51.80
851;DHT22;412;51.400;7.480;2022-09-06T11:07:30;33.10;50.60
851;DHT22;412;51.400;7.480;2022-09-06T11:10:27;33.10;49.80
851;DHT22;412;51.400;7.480;2022-09-06T11:13:09;33.10;49.90
851;DHT22;412;51.400;7.480;2022-09-06T11:18:29;33.10;50.00
851;DHT22;412;51.400;7.480;2022-09-06T11:23:50;33.20;49.80
851;DHT22;412;51.400;7.480;2022-09-06T11:28:56;33.30;49.90
851;DHT22;412;51.400;7.480;2022-09-06T11:31:33;33.30;50.00
851;DHT22;412;51.400;7.480;2022-09-06T11:34:28;33.40;49.10
851;DHT22;412;51.400;7.480;2022-09-06T11:36:57;33.50;48.50
851;DHT22;412;51.400;7.480;2022-09-06T11:39:40;33.40;46.80
851;DHT22;412;51.400;7.480;2022-09-06T11:47:44;33.50;48.70
851;DHT22;412;51.400;7.480;2022-09-06T12:01:31;33.80;49.00
851;DHT22;412;51.400;7.480;2022-09-06T12:06:44;33.90;48.30
851;DHT22;412;51.400;7.480;2022-09-06T12:11:56;33.90;48.00
851;DHT22;412;51.400;7.480;2022-09-06T12:14:41;33.90;48.50
851;DHT22;412;51.400;7.480;2022-09-06T12:19:45;33.90;48.20
851;DHT22;412;51.400;7.480;2022-09-06T12:25:02;33.60;47.20
851;DHT22;412;51.400;7.480;2022-09-06T12:27:38;33.50;48.30
851;DHT22;412;51.400;7.480;2022-09-06T12:30:11;33.50;47.50
851;DHT22;412;51.400;7.480;2022-09-06T12:32:42;33.40;47.50
851;DHT22;412;51.400;7.480;2022-09-06T12:35:14;33.30;47.70
851;DHT22;412;51.400;7.480;2022-09-06T12:38:01;33.20;47.40
851;DHT22;412;51.400;7.480;2022-09-06T12:40:33;33.00;48.00
851;DHT22;412;51.400;7.480;2022-09-06T12:43:02;33.00;46.90
851;DHT22;412;51.400;7.480;2022-09-06T12:45:28;32.80;47.00
851;DHT22;412;51.400;7.480;2022-09-06T12:48:08;32.70;47.70
851;DHT22;412;51.400;7.480;2022-09-06T12:50:34;32.50;47.90
851;DHT22;412;51.400;7.480;2022-09-06T12:53:02;32.40;48.40
851;DHT22;412;51.400;7.480;2022-09-06T12:55:31;32.30;49.30
851;DHT22;412;51.400;7.480;2022-09-06T12:58:09;32.30;48.70
851;DHT22;412;51.400;7.480;2022-09-06T13:00:43;32.30;48.40
851;DHT22;412;51.400;7.480;2022-09-06T13:03:32;32.30;49.20
851;DHT22;412;51.400;7.480;2022-09-06T13:06:02;32.30;48.80
851;DHT22;412;51.400;7.480;2022-09-06T13:08:36;32.30;48.90
851;DHT22;412;51.400;7.480;2022-09-06T13:11:08;32.40;49.40
851;DHT22;412;51.400;7.480;2022-09-06T13:13:35;32.40;49.70
851;DHT22;412;51.400;7.480;2022-09-06T13:16:01;32.40;49.20
851;DHT22;412;51.400;7.480;2022-09-06T13:18:35;32.50;49.00
851;DHT22;412;51.400;7.480;2022-09-06T13:21:05;32.40;48.30
851;DHT22;412;51.400;7.480;2022-09-06T13:23:43;32.40;48.60
851;DHT22;412;51.400;7.480;2022-09-06T13:26:09;32.40;49.10
851;DHT22;412;51.400;7.480;2022-09-06T13:28:35;32.30;49.70
851;DHT22;412;51.400;7.480;2022-09-06T13:33:28;32.30;50.00
851;DHT22;412;51.400;7.480;2022-09-06T13:41:03;32.30;50.20
851;DHT22;412;51.400;7.480;2022-09-06T13:43:29;32.20;49.20
851;DHT22;412;51.400;7.480;2022-09-06T13:46:08;32.10;49.10
851;DHT22;412;51.400;7.480;2022-09-06T13:48:35;31.90;49.20
851;DHT22;412;51.400;7.480;2022-09-06T13:51:07;31.80;50.70
851;DHT22;412;51.400;7.480;2022-09-06T13:53:34;31.80;49.40
851;DHT22;412;51.400;7.480;2022-09-06T13:56:00;31.70;50.00
851;DHT22;412;51.400;7.480;2022-09-06T13:58:26;31.80;50.30
851;DHT22;412;51.400;7.480;2022-09-06T14:00:53;31.80;50.00
851;DHT22;412;51.400;7.480;2022-09-06T14:03:25;31.80;49.40
851;DHT22;412;51.400;7.480;2022-09-06T14:05:52;31.90;49.50
851;DHT22;412;51.400;7.480;2022-09-06T14:08:18;31.80;48.90
851;DHT22;412;51.400;7.480;2022-09-06T14:10:44;31.90;49.00
851;DHT22;412;51.400;7.480;2022-09-06T14:13:15;31.80;49.50
851;DHT22;412;51.400;7.480;2022-09-06T14:15:41;31.80;49.50
851;DHT22;412;51.400;7.480;2022-09-06T14:18:07;31.80;49.30
851;DHT22;412;51.400;7.480;2022-09-06T14:20:33;31.80;49.00
851;DHT22;412;51.400;7.480;2022-09-06T14:22:59;31.80;48.90
851;DHT22;412;51.400;7.480;2022-09-06T14:25:25;31.70;48.60
851;DHT22;412;51.400;7.480;2022-09-06T14:27:50;31.60;49.20
851;DHT22;412;51.400;7.480;2022-09-06T14:30:16;31.50;49.70
851;DHT22;412;51.400;7.480;2022-09-06T14:32:42;31.50;50.50
851;DHT22;412;51.400;7.480;2022-09-06T14:35:08;31.40;49.40
851;DHT22;412;51.400;7.480;2022-09-06T14:37:34;31.30;48.80
851;DHT22;412;51.400;7.480;2022-09-06T14:39:59;31.20;50.20
851;DHT22;412;51.400;7.480;2022-09-06T14:42:25;31.30;50.20
851;DHT22;412;51.400;7.480;2022-09-06T14:44:53;31.30;50.50
851;DHT22;412;51.400;7.480;2022-09-06T14:47:19;31.30;51.00
851;DHT22;412;51.400;7.480;2022-09-06T14:49:44;31.30;51.10
851;DHT22;412;51.400;7.480;2022-09-06T14:52:10;31.30;50.80
851;DHT22;412;51.400;7.480;2022-09-06T14:54:36;31.30;50.30
851;DHT22;412;51.400;7.480;2022-09-06T14:57:01;31.30;49.80
851;DHT22;412;51.400;7.480;2022-09-06T14:59:28;31.20;50.40
851;DHT22;412;51.400;7.480;2022-09-06T15:01:53;31.30;51.60
851;DHT22;412;51.400;7.480;2022-09-06T15:04:19;31.20;50.30
851;DHT22;412;51.400;7.480;2022-09-06T15:06:45;31.10;50.90
851;DHT22;412;51.400;7.480;2022-09-06T15:09:14;31.10;51.00
851;DHT22;412;51.400;7.480;2022-09-06T15:11:50;31.20;50.50
851;DHT22;412;51.400;7.480;2022-09-06T15:14:22;31.20;50.30
851;DHT22;412;51.400;7.480;2022-09-06T15:16:49;31.20;50.50
851;DHT22;412;51.400;7.480;2022-09-06T15:19:20;31.20;50.30
851;DHT22;412;51.400;7.480;2022-09-06T15:21:46;31.20;49.40
851;DHT22;412;51.400;7.480;2022-09-06T15:24:12;31.30;49.30
851;DHT22;412;51.400;7.480;2022-09-06T15:26:42;31.30;49.20
851;DHT22;412;51.400;7.480;2022-09-06T15:29:09;31.30;49.10
851;DHT22;412;51.400;7.480;2022-09-06T15:31:36;31.40;48.40
851;DHT22;412;51.400;7.480;2022-09-06T15:34:03;31.40;48.30
851;DHT22;412;51.400;7.480;2022-09-06T15:36:30;31.40;49.00
851;DHT22;412;51.400;7.480;2022-09-06T15:38:59;31.40;49.00
851;DHT22;412;51.400;7.480;2022-09-06T15:41:30;31.40;48.90
851;DHT22;412;51.400;7.480;2022-09-06T15:43:59;31.40;49.00
851;DHT22;412;51.400;7.480;2022-09-06T15:49:09;31.30;49.40
851;DHT22;412;51.400;7.480;2022-09-06T15:51:36;31.30;50.10
851;DHT22;412;51.400;7.480;2022-09-06T15:54:03;31.30;49.30
851;DHT22;412;51.400;7.480;2022-09-06T15:56:29;31.30;49.10
851;DHT22;412;51.400;7.480;2022-09-06T15:58:55;31.30;49.30
851;DHT22;412;51.400;7.480;2022-09-06T16:01:22;31.10;49.50
851;DHT22;412;51.400;7.480;2022-09-06T16:03:52;31.10;50.20
851;DHT22;412;51.400;7.480;2022-09-06T16:06:24;31.00;50.70
851;DHT22;412;51.400;7.480;2022-09-06T16:08:54;30.90;50.80
851;DHT22;412;51.400;7.480;2022-09-06T16:11:21;30.80;50.60
851;DHT22;412;51.400;7.480;2022-09-06T16:13:46;30.70;48.90
851;DHT22;412;51.400;7.480;2022-09-06T16:16:14;30.50;49.60
851;DHT22;412;51.400;7.480;2022-09-06T16:18:42;30.50;50.00
851;DHT22;412;51.400;7.480;2022-09-06T16:21:15;30.40;50.40
851;DHT22;412;51.400;7.480;2022-09-06T16:23:47;30.30;51.30
851;DHT22;412;51.400;7.480;2022-09-06T16:26:14;30.20;51.20
851;DHT22;412;51.400;7.480;2022-09-06T16:28:40;30.10;50.80
851;DHT22;412;51.400;7.480;2022-09-06T16:31:07;30.10;50.60
851;DHT22;412;51.400;7.480;2022-09-06T16:33:35;30.10;51.30
851;DHT22;412;51.400;7.480;2022-09-06T16:36:03;30.00;51.20
851;DHT22;412;51.400;7.480;2022-09-06T16:38:30;29.90;50.70
851;DHT22;412;51.400;7.480;2022-09-06T16:41:24;29.80;51.20
851;DHT22;412;51.400;7.480;2022-09-06T16:43:52;29.70;51.80
851;DHT22;412;51.400;7.480;2022-09-06T16:46:23;29.60;52.50
851;DHT22;412;51.400;7.480;2022-09-06T16:48:57;29.50;52.50
851;DHT22;412;51.400;7.480;2022-09-06T16:51:28;29.50;52.00
851;DHT22;412;51.400;7.480;2022-09-06T16:53:54;29.40;52.70
851;DHT22;412;51.400;7.480;2022-09-06T16:56:25;29.40;53.40
851;DHT22;412;51.400;7.480;2022-09-06T16:58:56;29.30;54.10
851;DHT22;412;51.400;7.480;2022-09-06T17:01:24;29.20;54.70
851;DHT22;412;51.400;7.480;2022-09-06T17:03:50;29.10;54.50
851;DHT22;412;51.400;7.480;2022-09-06T17:06:17;29.10;55.10
851;DHT22;412;51.400;7.480;2022-09-06T17:08:43;29.00;55.20
851;DHT22;412;51.400;7.480;2022-09-06T17:11:12;28.90;55.30
851;DHT22;412;51.400;7.480;2022-09-06T17:13:39;28.90;54.70
851;DHT22;412;51.400;7.480;2022-09-06T17:16:06;28.80;55.30
851;DHT22;412;51.400;7.480;2022-09-06T17:18:51;28.70;55.90
851;DHT22;412;51.400;7.480;2022-09-06T17:21:22;28.70;55.20
851;DHT22;412;51.400;7.480;2022-09-06T17:23:48;28.60;56.00
851;DHT22;412;51.400;7.480;2022-09-06T17:26:16;28.60;56.50
851;DHT22;412;51.400;7.480;2022-09-06T17:28:42;28.50;56.50
851;DHT22;412;51.400;7.480;2022-09-06T17:31:08;28.50;56.90
851;DHT22;412;51.400;7.480;2022-09-06T17:33:34;28.40;56.90
851;DHT22;412;51.400;7.480;2022-09-06T17:36:05;28.40;56.80
851;DHT22;412;51.400;7.480;2022-09-06T17:38:31;28.30;56.30
851;DHT22;412;51.400;7.480;2022-09-06T17:40:57;28.20;56.90
851;DHT22;412;51.400;7.480;2022-09-06T17:43:24;28.10;56.80
851;DHT22;412;51.400;7.480;2022-09-06T17:45:50;28.10;56.90
851;DHT22;412;51.400;7.480;2022-09-06T17:48:16;28.00;57.20
851;DHT22;412;51.400;7.480;2022-09-06T17:50:42;27.90;57.40
851;DHT22;412;51.400;7.480;2022-09-06T17:53:09;27.90;58.00
851;DHT22;412;51.400;7.480;2022-09-06T17:55:41;27.80;58.10
851;DHT22;412;51.400;7.480;2022-09-06T17:58:08;27.70;58.60
851;DHT22;412;51.400;7.480;2022-09-06T18:00:38;27.60;58.80
851;DHT22;412;51.400;7.480;2022-09-06T18:03:07;27.60;58.60
851;DHT22;412;51.400;7.480;2022-09-06T18:05:35;27.50;59.20
851;DHT22;412;51.400;7.480;2022-09-06T18:08:05;27.50;58.80
851;DHT22;412;51.400;7.480;2022-09-06T18:10:36;27.40;59.10
851;DHT22;412;51.400;7.480;2022-09-06T18:13:05;27.30;59.40
851;DHT22;412;51.400;7.480;2022-09-06T18:15:36;27.20;58.90
851;DHT22;412;51.400;7.480;2022-09-06T18:18:02;27.20;59.70
851;DHT22;412;51.400;7.480;2022-09-06T18:20:28;27.10;59.70
851;DHT22;412;51.400;7.480;2022-09-06T18:22:54;27.00;59.70
851;DHT22;412;51.400;7.480;2022-09-06T18:25:20;27.00;60.20
851;DHT22;412;51.400;7.480;2022-09-06T18:27:45;26.90;59.90
851;DHT22;412;51.400;7.480;2022-09-06T18:30:11;26.90;60.40
851;DHT22;412;51.400;7.480;2022-09-06T18:32:37;26.80;60.50
851;DHT22;412;51.400;7.480;2022-09-06T18:35:06;26.80;60.10
851;DHT22;412;51.400;7.480;2022-09-06T18:37:33;26.70;59.90
851;DHT22;412;51.400;7.480;2022-09-06T18:40:02;26.70;61.30